Terminal Aerodrome Forecast
Issued by NWS Cleveland, OH

Home | Current Version | Previous Version | Graphics & Text | Print | Product List | Glossary On
Versions: 1 2 3 4 5 6 7 8 9 10 11 12 13 14 15 16 17 18 19 20
000
FTUS41 KCLE 022104 AAC
TAFERI
TAF AMD
KERI 022104Z 0221/0318 03008KT P6SM BKN012 OVC050
      TEMPO 0221/0301 SCT012
     FM031500 35006KT P6SM BKN050=

USA.gov is the U.S. government's official web portal to all federal, state and local government web resources and services.